Time;durP1;ratioP1;P1;durP2;ratioP2;P2;SDS_P1;SDS_P2;PMS_P1;PMS_P2;Temp;Humidity;BMP_temperature;BMP_pressure;BME280_temperature;BME280_humidity;BME280_pressure;Samples;Min_cycle;Max_cycle;Signal;HPM_P1;HPM_P2
2023/05/19 00:05:01;;;;;;;3.08;1.92;;;;;;;19.54;56.20;97590.38;10393378;28;20065;-55
2023/05/19 00:10:20;;;;;;;3.08;1.88;;;;;;;19.53;56.13;97586.06;10396004;28;20498;-55
2023/05/19 00:15:40;;;;;;;3.22;1.90;;;;;;;19.52;56.19;97587.19;10404570;28;20037;-55
2023/05/19 00:21:00;;;;;;;3.17;1.65;;;;;;;19.52;56.05;97576.38;10379300;28;20105;-55
2023/05/19 00:26:21;;;;;;;2.95;1.60;;;;;;;19.51;56.13;97572.06;10403788;28;20402;-55
2023/05/19 00:31:48;;;;;;;3.08;1.60;;;;;;;19.50;56.13;97567.78;10411157;28;20445;-55
2023/05/19 00:37:08;;;;;;;2.88;1.63;;;;;;;19.50;56.02;97573.19;10392121;28;20494;-54
2023/05/19 00:42:27;;;;;;;2.20;1.90;;;;;;;19.49;56.00;97568.88;10393552;28;20049;-55
2023/05/19 00:47:48;;;;;;;2.63;1.50;;;;;;;19.50;56.07;97566.94;10388428;28;20494;-55
2023/05/19 00:53:08;;;;;;;3.97;1.70;;;;;;;19.49;55.98;97566.16;10377445;28;20074;-55
2023/05/19 00:58:29;;;;;;;3.50;1.60;;;;;;;19.49;55.97;97555.34;10419071;28;20046;-55
2023/05/19 01:03:50;;;;;;;2.67;1.67;;;;;;;19.47;55.99;97551.38;10415479;28;20037;-55
2023/05/19 01:09:09;;;;;;;3.85;1.75;;;;;;;19.46;55.93;97558.66;10392884;28;20045;-55
2023/05/19 01:14:29;;;;;;;3.45;1.73;;;;;;;19.46;55.93;97560.56;10400985;28;20045;-54
2023/05/19 01:20:01;;;;;;;2.80;1.67;;;;;;;19.45;56.00;97554.38;10413428;28;20549;-55
2023/05/19 01:25:46;;;;;;;2.42;1.50;;;;;;;19.45;55.80;97553.56;10400690;28;20479;-54
2023/05/19 01:31:09;;;;;;;2.88;1.75;;;;;;;19.44;55.95;97546.56;10397190;28;20049;-55
2023/05/19 01:36:29;;;;;;;2.13;1.33;;;;;;;19.42;55.75;97541.44;10415875;28;20041;-54
2023/05/19 01:41:49;;;;;;;3.00;1.63;;;;;;;19.42;55.82;97549.56;10389003;28;20049;-54
2023/05/19 01:47:09;;;;;;;3.08;1.60;;;;;;;19.41;55.76;97553.38;10429546;28;20048;-55
2023/05/19 01:52:29;;;;;;;1.75;1.40;;;;;;;19.41;55.70;97566.88;10397545;28;20049;-54
2023/05/19 01:58:01;;;;;;;1.90;1.35;;;;;;;19.41;55.81;97558.78;10400528;28;20046;-55
2023/05/19 02:04:01;;;;;;;1.67;1.30;;;;;;;19.39;55.72;97552.09;10422551;28;20045;-55
2023/05/19 02:09:31;;;;;;;2.42;1.40;;;;;;;19.39;55.72;97552.88;10390569;28;20048;-54
2023/05/19 02:15:02;;;;;;;1.52;1.20;;;;;;;19.39;55.68;97552.09;10394877;28;20041;-55
2023/05/19 02:20:21;;;;;;;2.15;1.50;;;;;;;19.38;55.67;97545.06;10390301;28;20054;-54
2023/05/19 02:25:40;;;;;;;1.67;1.33;;;;;;;19.37;55.67;97547.00;10388399;28;20056;-54
2023/05/19 02:31:01;;;;;;;1.98;1.35;;;;;;;19.36;55.62;97532.66;10391504;28;20035;-55
2023/05/19 02:36:21;;;;;;;1.63;1.20;;;;;;;19.35;55.57;97528.38;10390632;28;20049;-54
2023/05/19 02:41:41;;;;;;;1.67;1.25;;;;;;;19.34;55.62;97529.47;10395107;28;20069;-54
2023/05/19 02:47:01;;;;;;;2.75;1.52;;;;;;;19.36;55.60;97518.34;10406728;28;20038;-55
2023/05/19 02:52:20;;;;;;;1.60;1.20;;;;;;;19.34;55.64;97523.28;10375959;28;20058;-55
2023/05/19 02:57:41;;;;;;;1.92;1.30;;;;;;;19.34;55.50;97520.56;10389988;28;20050;-55
2023/05/19 03:03:01;;;;;;;2.05;1.30;;;;;;;19.32;55.47;97511.97;10386051;28;20053;-55
2023/05/19 03:08:21;;;;;;;1.70;1.30;;;;;;;19.31;55.48;97505.78;10375413;28;20201;-55
2023/05/19 03:13:40;;;;;;;1.65;1.33;;;;;;;19.31;55.50;97511.19;10385259;28;20045;-55
2023/05/19 03:19:00;;;;;;;2.47;1.60;;;;;;;19.31;55.39;97516.59;10397674;28;20041;-55
2023/05/19 03:24:20;;;;;;;1.95;1.25;;;;;;;19.30;55.42;97509.56;10389624;28;20494;-54
2023/05/19 03:29:40;;;;;;;1.52;1.20;;;;;;;19.30;55.37;97516.88;10412147;28;20411;-55
2023/05/19 03:35:00;;;;;;;2.22;1.60;;;;;;;19.30;55.40;97522.28;10400228;28;20049;-55
2023/05/19 03:40:19;;;;;;;1.98;1.17;;;;;;;19.28;55.31;97521.78;10401706;28;20045;-54
2023/05/19 03:45:40;;;;;;;1.83;1.33;;;;;;;19.28;55.28;97524.50;10384572;28;20053;-55
2023/05/19 03:51:19;;;;;;;2.30;1.35;;;;;;;19.28;55.40;97521.78;10380132;28;20050;-54
2023/05/19 03:56:41;;;;;;;1.25;1.10;;;;;;;19.27;55.25;97521.00;10386986;28;20042;-55
2023/05/19 04:02:00;;;;;;;1.92;1.40;;;;;;;19.26;55.68;97510.50;10396653;28;20513;-55
2023/05/19 04:07:20;;;;;;;0.85;0.65;;;;;;;19.27;55.90;97526.41;10379817;28;20041;-55
2023/05/19 04:12:39;;;;;;;1.73;1.20;;;;;;;19.29;56.04;97528.81;10399396;28;20042;-55
2023/05/19 04:17:59;;;;;;;1.45;1.20;;;;;;;19.46;55.85;97522.72;10390948;28;20074;-55
2023/05/19 04:23:18;;;;;;;2.40;1.00;;;;;;;19.47;55.75;97522.44;10387737;28;20041;-56
2023/05/19 04:28:41;;;;;;;26.20;8.23;;;;;;;19.42;55.48;97527.16;10392649;28;20040;-55
2023/05/19 04:34:00;;;;;;;4.90;1.88;;;;;;;19.38;55.74;97526.16;10397116;28;20042;-54
2023/05/19 04:39:20;;;;;;;5.13;1.98;;;;;;;19.38;55.75;97526.16;10392478;28;20417;-55
2023/05/19 04:44:40;;;;;;;6.68;2.33;;;;;;;19.36;55.61;97529.16;10391937;28;20402;-56
2023/05/19 04:50:00;;;;;;;8.68;2.67;;;;;;;19.37;55.61;97525.38;10389089;28;20046;-56
2023/05/19 04:55:20;;;;;;;5.32;2.97;;;;;;;18.05;42.62;97529.59;10396649;28;20049;-55
2023/05/19 05:00:41;;;;;;;11.23;3.58;;;;;;;18.25;45.48;97528.41;10397408;28;20110;-55
2023/05/19 05:06:01;;;;;;;14.07;4.10;;;;;;;18.61;47.19;97517.75;10406309;28;20108;-55
2023/05/19 05:11:22;;;;;;;15.73;4.18;;;;;;;18.88;49.27;97516.97;10376193;28;20136;-55
2023/05/19 05:16:42;;;;;;;10.05;3.47;;;;;;;19.02;49.89;97514.25;10380512;28;20123;-55
2023/05/19 05:22:06;;;;;;;20.98;5.03;;;;;;;19.09;50.24;97511.94;10400975;28;20046;-55
2023/05/19 05:27:29;;;;;;;13.25;4.28;;;;;;;19.15;50.03;97508.03;10392231;28;20042;-55
2023/05/19 05:32:48;;;;;;;10.07;3.55;;;;;;;19.21;50.27;97505.19;10403944;28;20033;-55
2023/05/19 05:38:23;;;;;;;8.55;3.50;;;;;;;19.25;50.54;97504.28;10404606;28;20886;-55
2023/05/19 05:43:43;;;;;;;6.63;1.98;;;;;;;19.29;50.85;97502.59;10430199;28;20042;-55
2023/05/19 05:49:03;;;;;;;11.50;3.20;;;;;;;19.32;51.19;97507.34;10407416;28;20515;-55
2023/05/19 05:54:23;;;;;;;6.05;2.22;;;;;;;19.34;51.29;97505.16;10429023;28;20037;-55
2023/05/19 05:59:45;;;;;;;10.30;3.47;;;;;;;19.37;51.53;97503.75;10412825;28;20050;-55
2023/05/19 06:05:05;;;;;;;10.05;3.45;;;;;;;19.40;51.80;97503.13;10388386;28;20038;-55
2023/05/19 06:10:27;;;;;;;10.05;3.42;;;;;;;19.41;52.10;97499.34;10422257;28;20057;-55
2023/05/19 06:15:49;;;;;;;11.93;4.10;;;;;;;19.43;52.41;97510.63;10427669;28;20045;-55
2023/05/19 06:21:13;;;;;;;11.48;3.88;;;;;;;19.46;52.62;97511.91;10428149;28;20041;-55
2023/05/19 06:26:34;;;;;;;10.70;3.92;;;;;;;19.49;52.93;97519.44;10408922;28;20038;-55
2023/05/19 06:31:54;;;;;;;11.65;3.80;;;;;;;19.50;53.38;97511.03;10400782;28;20042;-55
2023/05/19 06:37:18;;;;;;;10.00;4.07;;;;;;;19.52;53.51;97508.81;10410481;28;20537;-55
2023/05/19 06:42:38;;;;;;;10.07;4.07;;;;;;;19.54;53.72;97524.69;10426949;28;20046;-55
2023/05/19 06:48:06;;;;;;;9.90;3.72;;;;;;;19.57;53.76;97516.00;10413248;28;20045;-55
2023/05/19 06:53:27;;;;;;;10.50;3.88;;;;;;;19.58;54.05;97519.47;10397973;28;20046;-56
2023/05/19 06:58:47;;;;;;;8.32;3.60;;;;;;;19.61;54.11;97537.81;10414277;28;20045;-56
2023/05/19 07:04:07;;;;;;;9.68;4.00;;;;;;;19.61;54.17;97529.69;10402224;28;20033;-55
2023/05/19 07:09:27;;;;;;;8.88;3.15;;;;;;;19.63;54.16;97527.47;10373805;28;20073;-55
2023/05/19 07:14:47;;;;;;;9.77;3.70;;;;;;;19.64;54.25;97529.88;10388140;28;20042;-55
2023/05/19 07:20:09;;;;;;;6.78;3.33;;;;;;;19.65;54.29;97531.47;10404773;28;20049;-55
2023/05/19 07:25:29;;;;;;;7.95;3.00;;;;;;;19.67;54.41;97533.88;10407162;28;20603;-55
2023/05/19 07:30:49;;;;;;;7.95;2.88;;;;;;;19.68;54.53;97535.44;10391303;28;20076;-55
2023/05/19 07:36:09;;;;;;;7.50;3.22;;;;;;;19.70;54.73;97535.97;10410147;28;20482;-56
2023/05/19 07:41:29;;;;;;;6.25;3.15;;;;;;;19.70;54.61;97535.97;10426614;28;20069;-55
2023/05/19 07:46:48;;;;;;;10.63;3.30;;;;;;;19.71;54.58;97524.84;10426247;28;20096;-55
2023/05/19 07:52:07;;;;;;;9.55;3.65;;;;;;;19.71;54.64;97524.84;10395604;28;20045;-55
2023/05/19 07:57:27;;;;;;;5.68;3.00;;;;;;;19.73;54.80;97521.84;10398444;28;20510;-55
2023/05/19 08:02:46;;;;;;;4.90;2.67;;;;;;;19.73;54.68;97521.84;10388918;28;20049;-56
2023/05/19 08:08:06;;;;;;;6.60;2.90;;;;;;;19.74;54.79;97526.97;10408431;28;20045;-55
2023/05/19 08:13:25;;;;;;;6.65;2.75;;;;;;;19.74;54.87;97512.66;10394352;28;20053;-55
2023/05/19 08:18:44;;;;;;;5.47;2.95;;;;;;;19.74;54.91;97513.44;10404758;28;20410;-55
2023/05/19 08:24:05;;;;;;;6.18;2.67;;;;;;;19.74;54.83;97491.03;10398213;28;20053;-55
2023/05/19 08:29:24;;;;;;;5.03;2.70;;;;;;;19.77;54.93;97505.81;10415366;28;20048;-55
2023/05/19 08:34:44;;;;;;;4.90;2.70;;;;;;;19.77;54.97;97500.41;10419521;28;20072;-55
2023/05/19 08:40:04;;;;;;;4.03;2.17;;;;;;;19.77;54.97;97503.13;10400149;28;20514;-56
2023/05/19 08:45:24;;;;;;;4.97;2.67;;;;;;;19.78;55.02;97496.59;10392491;28;20042;-55
2023/05/19 08:50:59;;;;;;;4.38;2.22;;;;;;;19.76;55.09;97494.22;10399535;28;20073;-55
2023/05/19 08:56:21;;;;;;;4.38;2.35;;;;;;;19.78;55.10;97497.41;10410476;28;20379;-55
2023/05/19 09:01:42;;;;;;;5.90;2.55;;;;;;;19.78;55.13;97493.88;10393903;28;20042;-55
2023/05/19 09:07:02;;;;;;;4.65;2.55;;;;;;;19.77;55.08;97486.91;10396555;28;20045;-56
2023/05/19 09:12:22;;;;;;;4.60;2.70;;;;;;;19.77;55.10;97485.00;10409657;28;20486;-55
2023/05/19 09:17:43;;;;;;;4.50;2.38;;;;;;;19.77;55.22;97485.00;10378223;28;20060;-55
2023/05/19 09:23:02;;;;;;;4.88;2.50;;;;;;;19.79;55.16;97481.97;10405336;28;20076;-55
2023/05/19 09:28:32;;;;;;;5.80;2.60;;;;;;;19.79;55.14;97481.97;10395770;28;20053;-55
2023/05/19 09:33:52;;;;;;;3.70;2.25;;;;;;;19.79;55.21;97471.16;10408699;28;20044;-55
2023/05/19 09:39:13;;;;;;;4.45;2.40;;;;;;;19.79;55.24;97471.16;10421333;28;20053;-56
2023/05/19 09:44:34;;;;;;;5.82;2.45;;;;;;;19.79;55.28;97468.47;10404450;28;20072;-56
2023/05/19 09:49:53;;;;;;;3.63;2.33;;;;;;;19.79;55.22;97469.25;10415521;28;20049;-55
2023/05/19 09:55:13;;;;;;;5.30;2.45;;;;;;;19.79;55.25;97469.25;10395982;28;20046;-55
2023/05/19 10:00:33;;;;;;;3.72;2.20;;;;;;;19.80;55.34;97478.16;10405099;28;20045;-55
2023/05/19 10:05:52;;;;;;;4.85;2.30;;;;;;;19.79;55.40;97471.97;10399365;28;20044;-55
2023/05/19 10:11:13;;;;;;;4.30;2.00;;;;;;;19.80;55.40;97464.63;10392560;28;20096;-55
2023/05/19 10:16:33;;;;;;;3.42;2.05;;;;;;;19.81;55.24;97466.25;10416337;28;20100;-55
2023/05/19 10:21:54;;;;;;;3.67;1.98;;;;;;;19.81;55.19;97452.72;10406969;28;20044;-55
2023/05/19 10:27:13;;;;;;;4.03;2.17;;;;;;;19.82;55.17;97455.13;10412846;28;20486;-55
2023/05/19 10:32:34;;;;;;;4.07;2.13;;;;;;;19.82;55.22;97448.94;10394978;28;20054;-55
2023/05/19 10:38:02;;;;;;;3.80;2.22;;;;;;;19.82;55.25;97457.84;10374927;28;20054;-55
2023/05/19 10:43:44;;;;;;;4.23;2.50;;;;;;;19.82;55.21;97449.72;10387479;28;20084;-55
2023/05/19 10:49:06;;;;;;;3.42;2.20;;;;;;;19.83;55.27;97435.06;10409349;28;20050;-55
2023/05/19 10:54:44;;;;;;;2.90;1.88;;;;;;;19.82;55.40;97448.94;10379913;28;20137;-55
2023/05/19 11:00:28;;;;;;;2.35;1.85;;;;;;;19.82;55.38;97449.72;10387339;28;20498;-55
2023/05/19 11:05:49;;;;;;;4.00;2.03;;;;;;;19.82;55.25;97436.19;10404920;28;20041;-55
2023/05/19 11:11:14;;;;;;;3.85;2.03;;;;;;;19.83;55.48;97445.88;10427320;28;20049;-55
2023/05/19 11:16:34;;;;;;;4.13;2.10;;;;;;;19.83;55.36;97432.38;10422789;28;20053;-55
2023/05/19 11:21:54;;;;;;;3.40;1.83;;;;;;;19.82;55.39;97433.50;10392497;28;20049;-55
2023/05/19 11:27:29;;;;;;;4.57;2.08;;;;;;;19.82;55.40;97433.50;10400710;28;20051;-55
2023/05/19 11:32:50;;;;;;;3.50;1.85;;;;;;;19.83;55.42;97428.88;10373709;28;20061;-55
2023/05/19 11:38:09;;;;;;;5.15;1.92;;;;;;;19.82;55.33;97428.09;10422546;28;20052;-55
2023/05/19 11:43:29;;;;;;;3.70;1.90;;;;;;;19.82;55.45;97427.31;10392772;28;20505;-55
2023/05/19 11:48:49;;;;;;;3.38;1.95;;;;;;;19.81;55.40;97423.78;10427702;28;20054;-55
2023/05/19 11:54:10;;;;;;;3.30;1.80;;;;;;;19.82;55.43;97427.31;10425890;28;20541;-55
2023/05/19 11:59:34;;;;;;;2.60;1.80;;;;;;;19.83;55.39;97431.59;10394367;28;20053;-55
2023/05/19 12:04:53;;;;;;;3.60;2.05;;;;;;;19.81;55.38;97431.88;10397148;28;20049;-55
2023/05/19 12:10:14;;;;;;;2.83;1.80;;;;;;;19.83;55.33;97439.69;10414101;28;20474;-55
2023/05/19 12:15:33;;;;;;;3.05;1.80;;;;;;;19.83;55.46;97437.00;10425504;28;20064;-55
2023/05/19 12:20:53;;;;;;;3.05;1.83;;;;;;;19.82;55.40;97440.81;10396542;28;20049;-55
2023/05/19 12:26:13;;;;;;;2.58;1.70;;;;;;;19.82;55.39;97438.13;10396164;28;20042;-55
2023/05/19 12:31:33;;;;;;;4.20;2.00;;;;;;;19.81;55.40;97426.47;10394859;28;20525;-55
2023/05/19 12:36:53;;;;;;;2.83;1.70;;;;;;;19.82;55.47;97427.31;10399016;28;20119;-55
2023/05/19 12:42:14;;;;;;;3.30;1.77;;;;;;;19.83;55.30;97429.66;10403803;28;20042;-55
2023/05/19 12:47:34;;;;;;;2.75;1.42;;;;;;;19.83;55.41;97426.97;10421657;28;20117;-55
2023/05/19 12:52:54;;;;;;;3.80;1.80;;;;;;;19.82;55.36;97428.09;10385519;28;20050;-55
2023/05/19 12:58:14;;;;;;;2.17;1.70;;;;;;;19.82;55.33;97417.28;10392100;28;20057;-55
2023/05/19 13:03:39;;;;;;;3.15;1.90;;;;;;;19.82;55.47;97430.00;10391947;28;20038;-55
2023/05/19 13:08:59;;;;;;;2.05;1.40;;;;;;;19.81;55.50;97423.00;10389310;28;20061;-55
2023/05/19 13:14:19;;;;;;;2.00;1.55;;;;;;;19.81;55.43;97418.38;10393817;28;20042;-55
2023/05/19 13:19:38;;;;;;;4.00;1.77;;;;;;;19.81;55.47;97417.56;10391169;28;20041;-55
2023/05/19 13:24:58;;;;;;;2.00;1.40;;;;;;;19.81;55.49;97420.28;10404385;28;20042;-55
2023/05/19 13:30:18;;;;;;;2.08;1.60;;;;;;;19.80;55.42;97418.69;10412765;28;20046;-55
2023/05/19 13:35:38;;;;;;;2.33;1.70;;;;;;;19.79;55.44;97417.88;10390840;28;20038;-55
2023/05/19 13:40:58;;;;;;;2.85;1.83;;;;;;;19.79;55.41;97417.09;10403442;28;20050;-55
2023/05/19 13:46:18;;;;;;;1.63;1.45;;;;;;;19.79;55.51;97408.97;10390005;28;20121;-55
2023/05/19 13:51:41;;;;;;;2.58;1.42;;;;;;;19.78;55.52;97407.38;10420585;28;20053;-55
2023/05/19 13:57:00;;;;;;;2.50;1.60;;;;;;;19.79;55.39;97411.69;10403628;28;20050;-55
2023/05/19 14:02:20;;;;;;;2.80;1.80;;;;;;;19.78;55.02;97405.50;10391827;28;20057;-55
2023/05/19 14:07:41;;;;;;;3.97;2.28;;;;;;;19.66;50.72;97416.84;10389083;28;20042;-55
2023/05/19 14:13:00;;;;;;;3.08;2.25;;;;;;;19.61;50.10;97410.78;10423342;28;20037;-55
2023/05/19 14:18:20;;;;;;;3.15;2.35;;;;;;;19.37;47.62;97406.50;10389084;28;20050;-54
2023/05/19 14:23:40;;;;;;;2.83;2.15;;;;;;;19.26;47.16;97405.94;10394869;28;20052;-54
2023/05/19 14:29:00;;;;;;;3.30;2.28;;;;;;;19.22;47.68;97409.56;10423881;28;20052;-54
2023/05/19 14:34:19;;;;;;;3.85;2.40;;;;;;;19.19;47.57;97407.47;10426245;28;20049;-54
2023/05/19 14:39:39;;;;;;;4.20;2.00;;;;;;;19.29;49.48;97416.13;10414399;28;20049;-55
2023/05/19 14:44:59;;;;;;;3.45;1.85;;;;;;;19.36;50.47;97410.28;10401369;28;20056;-55
2023/05/19 14:50:18;;;;;;;4.25;1.77;;;;;;;19.42;50.79;97413.66;10420975;28;20057;-55
2023/05/19 14:55:38;;;;;;;4.22;2.05;;;;;;;19.45;50.98;97413.84;10398099;28;20037;-55
2023/05/19 15:00:58;;;;;;;3.95;1.80;;;;;;;19.48;51.17;97407.84;10414535;28;20045;-55
2023/05/19 15:06:17;;;;;;;2.78;1.80;;;;;;;19.50;51.40;97402.09;10387107;28;20042;-55
2023/05/19 15:11:36;;;;;;;4.78;1.40;;;;;;;19.51;51.38;97404.50;10390010;28;20115;-55
2023/05/19 15:16:56;;;;;;;1.88;1.67;;;;;;;19.52;51.57;97400.72;10412941;28;20490;-55
2023/05/19 15:22:15;;;;;;;4.45;1.90;;;;;;;19.53;51.61;97410.41;10411551;28;20069;-55
2023/05/19 15:27:35;;;;;;;2.90;1.88;;;;;;;19.55;51.89;97397.38;10418152;28;20048;-55
2023/05/19 15:32:54;;;;;;;8.05;1.80;;;;;;;19.58;52.06;97400.56;10386334;28;20046;-54
2023/05/19 15:38:14;;;;;;;4.07;2.50;;;;;;;19.56;50.96;97392.75;10392219;28;20053;-55
2023/05/19 15:43:33;;;;;;;6.32;2.42;;;;;;;19.55;50.13;97402.78;10412614;28;20049;-56
2023/05/19 15:48:53;;;;;;;11.60;2.70;;;;;;;19.53;50.08;97399.59;10424024;28;20524;-55
2023/05/19 15:54:13;;;;;;;3.20;2.90;;;;;;;19.52;50.04;97400.72;10425512;28;20485;-55
2023/05/19 15:59:32;;;;;;;5.85;3.08;;;;;;;19.43;49.52;97401.75;10410058;28;20417;-56
2023/05/19 16:04:52;;;;;;;4.30;2.65;;;;;;;19.44;49.71;97396.03;10415498;28;20057;-59
2023/05/19 16:10:11;;;;;;;3.38;2.72;;;;;;;19.45;49.50;97397.63;10421984;28;20044;-60
2023/05/19 16:15:31;;;;;;;2.75;2.50;;;;;;;19.45;49.18;97402.25;10425954;28;20053;-59
2023/05/19 16:20:51;;;;;;;4.55;2.22;;;;;;;19.45;49.77;97404.97;10424390;28;20049;-55
2023/05/19 16:26:11;;;;;;;3.92;2.50;;;;;;;19.44;50.37;97401.44;10424308;28;20033;-54
2023/05/19 16:31:30;;;;;;;2.30;2.10;;;;;;;19.46;50.65;97393.03;10378916;28;20057;-55
2023/05/19 16:36:49;;;;;;;4.22;3.20;;;;;;;19.46;50.86;97396.53;10411683;28;20095;-55
2023/05/19 16:42:09;;;;;;;6.15;3.15;;;;;;;19.46;50.99;97390.31;10432729;28;20053;-56
2023/05/19 16:47:28;;;;;;;6.45;4.28;;;;;;;19.48;51.37;97383.53;10418136;28;20053;-55
2023/05/19 16:52:48;;;;;;;5.82;3.63;;;;;;;19.50;51.83;97383.19;10394290;28;20105;-56
2023/05/19 16:58:10;;;;;;;5.97;3.40;;;;;;;19.52;52.81;97392.59;10395705;28;20095;-56
2023/05/19 17:03:30;;;;;;;7.72;5.43;;;;;;;19.54;53.38;97384.16;10431993;28;20061;-56
2023/05/19 17:08:50;;;;;;;11.20;6.10;;;;;;;19.53;53.34;97391.47;10432068;28;20045;-56
2023/05/19 17:14:10;;;;;;;10.40;6.57;;;;;;;19.55;53.72;97391.19;10417953;28;20071;-58
2023/05/19 17:19:30;;;;;;;8.50;5.75;;;;;;;19.55;54.23;97397.38;10431346;28;20414;-55
2023/05/19 17:24:50;;;;;;;7.55;5.63;;;;;;;19.56;54.80;97404.38;10407270;28;20037;-48
2023/05/19 17:30:11;;;;;;;8.13;5.38;;;;;;;19.59;55.16;97402.19;10413696;28;20406;-50
2023/05/19 17:35:32;;;;;;;8.95;5.20;;;;;;;19.61;55.58;97402.66;10390644;28;20042;-53
2023/05/19 17:40:52;;;;;;;8.27;5.32;;;;;;;19.62;55.83;97406.94;10408335;28;20061;-52
2023/05/19 17:46:12;;;;;;;7.25;5.32;;;;;;;19.62;56.24;97407.75;10404422;28;20041;-53
2023/05/19 17:51:32;;;;;;;7.55;5.85;;;;;;;19.63;56.07;97406.63;10406204;28;20057;-57
2023/05/19 17:56:52;;;;;;;6.07;4.70;;;;;;;19.65;56.47;97409.84;10391570;28;20125;-54
2023/05/19 18:02:12;;;;;;;5.38;4.68;;;;;;;19.66;56.52;97408.75;10420523;28;20048;-56
2023/05/19 18:07:31;;;;;;;6.68;3.75;;;;;;;19.67;56.54;97399.50;10419851;28;20116;-55
2023/05/19 18:12:51;;;;;;;7.50;4.70;;;;;;;19.69;56.68;97404.59;10405379;28;20046;-55
2023/05/19 18:18:11;;;;;;;6.55;4.00;;;;;;;19.70;56.79;97401.59;10401443;28;20045;-55
2023/05/19 18:23:30;;;;;;;5.95;4.78;;;;;;;19.71;56.94;97403.22;10397863;28;20449;-56
2023/05/19 18:28:50;;;;;;;6.53;5.10;;;;;;;19.72;56.93;97401.34;10417637;28;20052;-56
2023/05/19 18:34:10;;;;;;;7.40;4.85;;;;;;;19.73;56.29;97402.91;10419102;28;20041;-56
2023/05/19 18:39:29;;;;;;;4.10;3.70;;;;;;;19.72;56.88;97402.13;10391007;28;20050;-60
2023/05/19 18:44:49;;;;;;;10.60;4.13;;;;;;;19.74;57.11;97404.53;10411368;28;20044;-58
2023/05/19 18:50:09;;;;;;;4.80;3.90;;;;;;;19.74;57.03;97401.81;10413012;28;20054;-57
2023/05/19 18:55:28;;;;;;;9.00;4.68;;;;;;;19.75;57.08;97412.28;10383919;28;20053;-58
2023/05/19 19:00:49;;;;;;;5.38;4.00;;;;;;;19.74;57.24;97415.34;10427110;28;20049;-58
2023/05/19 19:06:09;;;;;;;4.22;3.35;;;;;;;19.76;57.39;97423.94;10405254;28;20042;-59
2023/05/19 19:11:28;;;;;;;5.70;4.45;;;;;;;19.77;57.52;97422.00;10409944;28;20041;-59
2023/05/19 19:16:48;;;;;;;7.18;4.50;;;;;;;19.75;57.32;97417.69;10425157;28;20041;-58
2023/05/19 19:22:07;;;;;;;8.25;4.28;;;;;;;19.77;57.54;97425.50;10397009;28;20473;-59
2023/05/19 19:27:29;;;;;;;4.05;3.25;;;;;;;19.77;57.70;97440.94;10418538;28;20556;-58
2023/05/19 19:32:49;;;;;;;5.78;3.95;;;;;;;19.77;57.59;97449.84;10422825;28;20037;-58
2023/05/19 19:38:09;;;;;;;5.32;3.92;;;;;;;19.77;57.83;97444.44;10426193;28;20045;-55
2023/05/19 19:43:28;;;;;;;5.40;3.45;;;;;;;19.78;58.01;97448.75;10414457;28;20046;-54
2023/05/19 19:48:48;;;;;;;5.22;4.10;;;;;;;19.79;57.94;97444.91;10404650;28;20057;-56
2023/05/19 19:54:08;;;;;;;5.22;3.72;;;;;;;19.79;58.23;97450.31;10412485;28;20053;-56
2023/05/19 19:59:28;;;;;;;6.25;3.60;;;;;;;19.80;58.25;97434.91;10414659;28;20128;-55
2023/05/19 20:04:48;;;;;;;6.15;3.90;;;;;;;19.79;58.43;97442.22;10385659;28;20049;-55
2023/05/19 20:10:08;;;;;;;4.78;3.80;;;;;;;19.79;58.21;97444.91;10397959;28;20041;-55
2023/05/19 20:15:28;;;;;;;5.47;3.72;;;;;;;19.80;58.31;97445.72;10422468;28;20061;-55
2023/05/19 20:20:48;;;;;;;7.38;4.07;;;;;;;19.79;58.19;97444.13;10413454;28;20042;-55
2023/05/19 20:26:07;;;;;;;5.82;3.60;;;;;;;19.79;58.38;97444.91;10433629;28;20045;-55
2023/05/19 20:31:27;;;;;;;5.80;3.85;;;;;;;19.79;58.31;97450.31;10421507;28;20037;-57
2023/05/19 20:36:46;;;;;;;4.47;3.30;;;;;;;19.79;58.72;97447.63;10392916;28;20038;-56
2023/05/19 20:42:07;;;;;;;6.97;3.70;;;;;;;19.79;58.31;97438.72;10395606;28;20490;-56
2023/05/19 20:47:26;;;;;;;5.78;3.40;;;;;;;19.79;58.67;97439.50;10429845;28;20034;-56
2023/05/19 20:52:46;;;;;;;4.30;3.15;;;;;;;19.79;58.34;97441.44;10406338;28;20050;-56
2023/05/19 20:58:05;;;;;;;4.20;3.22;;;;;;;19.79;58.14;97438.72;10395860;28;20037;-56
2023/05/19 21:03:25;;;;;;;4.65;3.10;;;;;;;19.78;58.30;97431.69;10421193;28;20054;-56
2023/05/19 21:08:45;;;;;;;3.90;3.30;;;;;;;19.76;57.98;97421.22;10424506;28;20052;-56
2023/05/19 21:14:06;;;;;;;3.42;3.10;;;;;;;19.77;57.89;97422.81;10401099;28;20049;-56
2023/05/19 21:19:26;;;;;;;3.75;3.20;;;;;;;19.77;57.96;97422.00;10381083;28;20061;-56
2023/05/19 21:24:46;;;;;;;4.90;3.25;;;;;;;19.77;58.01;97430.13;10415351;28;20052;-56
2023/05/19 21:30:05;;;;;;;4.18;3.47;;;;;;;19.75;58.08;97425.03;10410285;28;20061;-56
2023/05/19 21:35:25;;;;;;;3.92;3.45;;;;;;;19.75;58.17;97436.63;10419595;28;20474;-56
2023/05/19 21:40:46;;;;;;;4.55;3.33;;;;;;;19.74;58.14;97445.84;10414706;28;20057;-56
2023/05/19 21:46:06;;;;;;;5.22;3.55;;;;;;;19.74;58.16;97447.78;10425238;28;20041;-56
2023/05/19 21:51:25;;;;;;;3.80;3.25;;;;;;;19.73;58.15;97457.75;10420924;28;20056;-56
2023/05/19 21:56:45;;;;;;;3.40;3.10;;;;;;;19.72;58.17;97456.19;10416498;28;20061;-56
2023/05/19 22:02:05;;;;;;;3.72;3.20;;;;;;;19.71;58.06;97459.97;10397175;28;20042;-56
2023/05/19 22:07:25;;;;;;;4.78;3.67;;;;;;;19.71;58.11;97464.56;10395474;28;20048;-56
2023/05/19 22:12:45;;;;;;;3.83;3.10;;;;;;;19.70;58.07;97457.56;10402447;28;20418;-56
2023/05/19 22:18:04;;;;;;;3.00;2.70;;;;;;;19.70;58.18;97457.56;10395821;28;20041;-56
2023/05/19 22:23:23;;;;;;;3.97;2.92;;;;;;;19.69;57.89;97448.66;10428680;28;20041;-56
2023/05/19 22:28:49;;;;;;;5.10;3.17;;;;;;;19.69;57.87;97445.16;10396351;28;20057;-56
2023/05/19 22:34:11;;;;;;;3.00;2.70;;;;;;;19.67;57.78;97437.34;10394852;28;20046;-56
2023/05/19 22:39:30;;;;;;;4.07;3.08;;;;;;;19.67;57.87;97426.53;10393964;28;20050;-56
2023/05/19 22:44:50;;;;;;;3.17;2.88;;;;;;;19.66;57.86;97418.72;10388089;28;20042;-56
2023/05/19 22:50:11;;;;;;;3.70;3.08;;;;;;;19.66;57.88;97414.16;10416405;28;20060;-56
2023/05/19 22:55:31;;;;;;;3.90;2.72;;;;;;;19.65;57.91;97423.34;10415420;28;20050;-56
2023/05/19 23:00:50;;;;;;;4.15;3.03;;;;;;;19.65;57.91;97417.16;10390409;28;20041;-56
2023/05/19 23:06:09;;;;;;;3.50;2.75;;;;;;;19.64;57.79;97410.13;10390198;28;20045;-56
2023/05/19 23:11:29;;;;;;;4.53;2.92;;;;;;;19.64;57.81;97423.66;10398253;28;20438;-56
2023/05/19 23:16:49;;;;;;;3.47;3.15;;;;;;;19.63;57.75;97420.16;10386894;28;20042;-56
2023/05/19 23:22:08;;;;;;;2.88;2.58;;;;;;;19.63;57.72;97397.75;10422558;28;20044;-56
2023/05/19 23:27:27;;;;;;;3.05;2.75;;;;;;;19.62;57.77;97396.13;10426288;28;20037;-56
2023/05/19 23:32:47;;;;;;;4.22;2.55;;;;;;;19.61;57.73;97399.97;10404091;28;20038;-56
2023/05/19 23:38:06;;;;;;;3.28;2.80;;;;;;;19.59;57.65;97408.38;10422157;28;20041;-56
2023/05/19 23:43:26;;;;;;;3.65;2.80;;;;;;;19.59;57.66;97407.56;10399725;28;20076;-56
2023/05/19 23:48:46;;;;;;;3.00;2.70;;;;;;;19.59;57.66;97399.47;10418029;28;20050;-56
2023/05/19 23:54:05;;;;;;;2.90;2.55;;;;;;;19.58;57.58;97395.94;10413135;28;20045;-56
2023/05/19 23:59:25;;;;;;;3.15;2.60;;;;;;;19.57;57.66;97391.66;10422923;28;20494;-56
